createdAt,value
2018-02-01T00:00:13.315Z,75.40
2018-02-01T00:02:40.850Z,75.40
2018-02-01T00:05:08.368Z,75.80
2018-02-01T00:07:35.886Z,76.30
2018-02-01T00:10:03.395Z,76.00
2018-02-01T00:12:30.891Z,75.60
2018-02-01T00:14:58.399Z,75.70
2018-02-01T00:17:25.898Z,75.40
2018-02-01T00:19:53.403Z,75.60
2018-02-01T00:22:20.914Z,75.80
2018-02-01T00:24:48.411Z,75.70
2018-02-01T00:27:16.675Z,75.70
2018-02-01T00:29:44.174Z,75.70
2018-02-01T00:32:11.670Z,75.40
2018-02-01T00:34:40.698Z,74.60
2018-02-01T00:37:08.954Z,74.50
2018-02-01T00:39:36.450Z,74.50
2018-02-01T00:42:03.951Z,74.10
2018-02-01T00:44:31.458Z,74.30
2018-02-01T00:46:58.960Z,74.30
2018-02-01T00:49:26.454Z,74.00
2018-02-01T00:51:54.710Z,74.80
2018-02-01T00:54:22.203Z,74.70
2018-02-01T00:56:50.470Z,75.10
2018-02-01T00:59:18.738Z,75.20
2018-02-01T01:01:47.010Z,75.30
2018-02-01T01:04:15.274Z,75.90
2018-02-01T01:06:42.767Z,75.90
2018-02-01T01:09:11.050Z,77.60
2018-02-01T01:11:38.558Z,77.60
2018-02-01T01:14:06.049Z,77.70
2018-02-01T01:16:34.299Z,78.00
2018-02-01T01:19:01.799Z,78.00
2018-02-01T01:21:29.303Z,78.30
2018-02-01T01:23:56.795Z,78.90
2018-02-01T01:26:25.063Z,79.30
2018-02-01T01:28:52.560Z,79.30
2018-02-01T01:31:20.066Z,80.50
2018-02-01T01:33:47.562Z,79.60
2018-02-01T01:36:15.823Z,80.10
2018-02-01T01:38:44.123Z,80.40
2018-02-01T01:41:11.618Z,80.30
2018-02-01T01:43:39.121Z,80.50
2018-02-01T01:46:11.282Z,80.40
2018-02-01T01:48:39.537Z,80.50
2018-02-01T01:51:07.030Z,80.40
2018-02-01T01:53:35.286Z,80.30
2018-02-01T01:56:03.567Z,80.60
2018-02-01T01:58:31.827Z,80.10
2018-02-01T02:00:59.335Z,80.00
2018-02-01T02:03:26.827Z,79.90
2018-02-01T02:05:54.415Z,79.80
2018-02-01T02:08:22.732Z,79.70
2018-02-01T02:10:50.251Z,79.70
2018-02-01T02:13:17.747Z,79.70
2018-02-01T02:15:45.257Z,79.50
2018-02-01T02:18:12.775Z,79.50
2018-02-01T02:20:40.275Z,79.70
2018-02-01T02:23:07.766Z,79.80
2018-02-01T02:25:35.275Z,79.50
2018-02-01T02:28:02.770Z,79.40
2018-02-01T02:30:31.039Z,79.30
2018-02-01T02:32:59.310Z,79.60
2018-02-01T02:35:26.808Z,79.60
2018-02-01T02:37:54.303Z,79.90
2018-02-01T02:40:21.802Z,80.10
2018-02-01T02:42:50.074Z,81.10
2018-02-01T02:45:18.344Z,81.40
2018-02-01T02:47:46.606Z,81.40
2018-02-01T02:50:14.104Z,81.40
2018-02-01T02:52:41.602Z,81.10
2018-02-01T02:55:09.095Z,81.90
2018-02-01T02:57:37.366Z,82.30
2018-02-01T03:00:05.626Z,82.50
2018-02-01T03:02:33.139Z,82.30
2018-02-01T03:05:00.638Z,82.40
2018-02-01T03:07:28.143Z,82.20
2018-02-01T03:09:55.671Z,82.10
2018-02-01T03:12:23.183Z,81.90
2018-02-01T03:14:50.687Z,82.00
2018-02-01T03:17:18.184Z,81.20
2018-02-01T03:19:45.674Z,80.80
2018-02-01T03:22:13.167Z,80.90
2018-02-01T03:24:41.447Z,81.10
2018-02-01T03:27:09.703Z,80.50
2018-02-01T03:29:37.220Z,80.50
2018-02-01T03:32:04.707Z,81.00
2018-02-01T03:34:32.215Z,81.30
2018-02-01T03:36:59.725Z,81.70
2018-02-01T03:39:27.218Z,81.30
2018-02-01T03:41:55.486Z,82.10
2018-02-01T03:44:23.748Z,82.70
2018-02-01T03:46:51.260Z,82.70
2018-02-01T03:49:18.751Z,82.90
2018-02-01T03:51:46.245Z,83.10
2018-02-01T03:54:14.642Z,82.40
2018-02-01T03:56:42.147Z,82.40
2018-02-01T03:59:09.645Z,81.90
2018-02-01T04:01:37.918Z,82.10
2018-02-01T04:04:06.174Z,82.80
2018-02-01T04:06:33.668Z,82.00
2018-02-01T04:09:01.163Z,81.60
2018-02-01T04:11:28.655Z,81.80
2018-02-01T04:13:56.152Z,82.30
2018-02-01T04:16:23.658Z,82.60
2018-02-01T04:18:52.658Z,82.90
2018-02-01T04:21:20.148Z,82.90
2018-02-01T04:23:47.647Z,83.00
2018-02-01T04:26:15.155Z,82.40
2018-02-01T04:28:43.426Z,81.80
2018-02-01T04:31:11.685Z,81.50
2018-02-01T04:33:39.174Z,81.50
2018-02-01T04:36:06.688Z,81.30
2018-02-01T04:38:34.179Z,81.20
2018-02-01T04:41:02.442Z,81.10
2018-02-01T04:43:30.711Z,81.10
2018-02-01T04:45:58.202Z,81.00
2018-02-01T04:48:25.694Z,80.70
2018-02-01T04:50:53.186Z,80.30
2018-02-01T04:53:20.678Z,80.30
2018-02-01T04:55:48.174Z,80.60
2018-02-01T04:58:15.686Z,81.10
2018-02-01T05:00:43.941Z,81.20
2018-02-01T05:03:12.210Z,81.50
2018-02-01T05:05:40.479Z,81.80
2018-02-01T05:08:08.743Z,81.80
2018-02-01T05:10:36.254Z,81.90
2018-02-01T05:13:03.770Z,81.80
2018-02-01T05:15:31.278Z,81.80
2018-02-01T05:17:58.779Z,81.70
2018-02-01T05:20:26.289Z,81.60
2018-02-01T05:22:53.803Z,81.60
2018-02-01T05:25:21.303Z,81.60
2018-02-01T05:27:48.818Z,81.70
2018-02-01T05:30:16.306Z,81.60
2018-02-01T05:32:43.826Z,81.60
2018-02-01T05:35:11.330Z,81.60
2018-02-01T05:37:39.615Z,82.30
2018-02-01T05:40:07.122Z,82.30
2018-02-01T05:42:34.614Z,82.30
2018-02-01T05:45:02.882Z,82.00
2018-02-01T05:50:05.982Z,82.00
2018-02-01T05:52:33.487Z,81.70
2018-02-01T05:55:00.998Z,81.40
2018-02-01T05:57:28.490Z,82.20
2018-02-01T05:59:55.986Z,83.00
2018-02-01T06:02:23.487Z,82.20
2018-02-01T06:04:51.786Z,82.80
2018-02-01T06:07:19.287Z,82.70
2018-02-01T06:09:46.778Z,83.10
2018-02-01T06:12:15.047Z,83.00
2018-02-01T06:14:43.306Z,82.90
2018-02-01T06:17:10.822Z,82.80
2018-02-01T06:19:38.315Z,82.70
2018-02-01T06:22:05.811Z,82.70
2018-02-01T06:24:34.087Z,82.50
2018-02-01T06:27:02.359Z,82.60
2018-02-01T06:29:30.624Z,82.60
2018-02-01T06:31:58.135Z,82.60
2018-02-01T06:34:25.640Z,82.60
2018-02-01T06:36:53.919Z,83.10
2018-02-01T06:39:22.178Z,83.60
2018-02-01T06:41:49.685Z,83.60
2018-02-01T06:44:17.179Z,83.90
2018-02-01T06:46:44.671Z,84.00
2018-02-01T06:49:13.014Z,84.10
2018-02-01T06:51:41.231Z,83.80
2018-02-01T06:54:09.491Z,83.50
2018-02-01T06:56:36.995Z,83.50
2018-02-01T06:59:04.483Z,83.00
2018-02-01T07:01:31.979Z,82.70
2018-02-01T07:04:00.250Z,82.70
2018-02-01T07:06:28.526Z,82.90
2018-02-01T07:08:56.783Z,83.10
2018-02-01T07:11:24.277Z,83.10
2018-02-01T07:13:52.535Z,83.50
2018-02-01T07:16:20.802Z,83.60
2018-02-01T07:18:48.326Z,83.50
2018-02-01T07:21:15.826Z,83.60
2018-02-01T07:23:43.323Z,83.20
2018-02-01T07:26:10.823Z,82.90
2018-02-01T07:28:38.318Z,82.60
2018-02-01T07:31:06.579Z,82.00
2018-02-01T07:33:34.850Z,81.60
2018-02-01T07:36:02.367Z,81.60
2018-02-01T07:38:29.866Z,81.70
2018-02-01T07:40:57.388Z,82.00
2018-02-01T07:43:24.892Z,82.50
2018-02-01T07:45:56.163Z,82.50
2018-02-01T07:48:23.698Z,82.50
2018-02-01T07:50:51.966Z,82.60
2018-02-01T07:53:20.238Z,82.70
2018-02-01T07:55:47.736Z,82.70
2018-02-01T07:58:15.233Z,82.90
2018-02-01T08:00:42.730Z,83.40
2018-02-01T08:03:10.994Z,85.60
2018-02-01T08:05:39.262Z,85.20
2018-02-01T08:08:06.756Z,85.20
2018-02-01T08:10:34.270Z,85.50
2018-02-01T08:13:02.565Z,85.80
2018-02-01T08:15:30.838Z,85.80
2018-02-01T08:17:58.331Z,85.80
2018-02-01T08:20:25.822Z,85.70
2018-02-01T08:22:53.319Z,85.50
2018-02-01T08:25:21.590Z,84.90
2018-02-01T08:27:49.085Z,85.60
2018-02-01T08:30:16.605Z,84.70
2018-02-01T08:32:44.988Z,85.10
2018-02-01T08:35:13.310Z,85.30
2018-02-01T08:37:40.876Z,85.20
2018-02-01T08:40:08.446Z,85.70
2018-02-01T08:42:36.014Z,86.30
2018-02-01T08:45:03.606Z,86.80
2018-02-01T08:47:31.899Z,87.00
2018-02-01T08:49:59.472Z,86.80
2018-02-01T08:52:27.047Z,86.70
2018-02-01T08:54:54.598Z,86.20
2018-02-01T08:57:22.181Z,85.70
2018-02-01T08:59:49.825Z,85.30
2018-02-01T09:02:17.429Z,84.60
2018-02-01T09:04:44.989Z,84.50
2018-02-01T09:07:13.293Z,84.00
2018-02-01T09:09:41.695Z,83.90
2018-02-01T09:12:09.251Z,83.90
2018-02-01T09:14:36.916Z,83.90
2018-02-01T09:17:04.468Z,83.70
2018-02-01T09:19:32.086Z,84.60
2018-02-01T09:22:00.367Z,83.60
2018-02-01T09:24:28.080Z,83.50
2018-02-01T09:26:55.656Z,83.30
2018-02-01T09:29:23.179Z,83.20
2018-02-01T09:31:50.855Z,83.30
2018-02-01T09:34:18.440Z,83.40
2018-02-01T09:36:46.011Z,83.70
2018-02-01T09:39:13.527Z,84.00
2018-02-01T09:41:41.147Z,84.40
2018-02-01T09:44:08.712Z,84.50
2018-02-01T09:46:36.273Z,84.40
2018-02-01T09:49:03.856Z,84.10
2018-02-01T09:51:31.528Z,83.70
2018-02-01T09:53:59.185Z,83.80
2018-02-01T09:56:26.741Z,83.70
2018-02-01T09:58:54.318Z,84.00
2018-02-01T10:01:21.881Z,84.10
2018-02-01T10:03:49.445Z,84.00
2018-02-01T10:06:17.002Z,84.00
2018-02-01T10:08:44.643Z,83.80
2018-02-01T10:11:12.192Z,83.90
2018-02-01T10:13:40.484Z,84.30
2018-02-01T10:16:08.162Z,84.30
2018-02-01T10:18:35.725Z,84.30
2018-02-01T10:21:03.384Z,84.90
2018-02-01T10:23:30.916Z,85.30
2018-02-01T10:25:59.316Z,86.20
2018-02-01T10:28:26.922Z,86.20
2018-02-01T10:30:54.515Z,87.20
2018-02-01T10:33:22.834Z,87.20
2018-02-01T10:35:50.410Z,87.20
2018-02-01T10:38:17.898Z,86.50
2018-02-01T10:40:46.198Z,85.20
2018-02-01T10:43:13.790Z,85.10
2018-02-01T10:45:41.308Z,84.40
2018-02-01T10:48:08.850Z,84.50
2018-02-01T10:50:37.278Z,86.50
2018-02-01T10:53:04.813Z,86.50
2018-02-01T10:55:32.348Z,87.50
2018-02-01T10:58:00.641Z,87.70
2018-02-01T11:00:28.953Z,86.90
2018-02-01T11:02:56.500Z,86.90
2018-02-01T11:05:24.065Z,86.60
2018-02-01T11:07:51.600Z,86.50
2018-02-01T11:10:19.119Z,86.20
2018-02-01T11:12:46.689Z,86.30
2018-02-01T11:15:15.736Z,86.70
2018-02-01T11:17:43.295Z,86.70
2018-02-01T11:20:10.826Z,86.90
2018-02-01T11:22:39.164Z,86.90
2018-02-01T11:25:06.719Z,86.90
2018-02-01T11:27:34.385Z,87.10
2018-02-01T11:30:01.938Z,87.00
2018-02-01T11:32:29.568Z,86.90
2018-02-01T11:34:57.140Z,85.90
2018-02-01T11:37:24.710Z,84.70
2018-02-01T11:39:52.240Z,84.50
2018-02-01T11:42:19.816Z,83.70
2018-02-01T11:44:47.380Z,83.30
2018-02-01T11:47:14.944Z,83.20
2018-02-01T11:49:42.508Z,83.70
2018-02-01T11:52:10.099Z,82.70
2018-02-01T11:54:37.727Z,82.70
2018-02-01T11:57:05.396Z,82.60
2018-02-01T11:59:32.978Z,83.00
2018-02-01T12:02:00.625Z,82.90
2018-02-01T12:04:28.210Z,83.00
2018-02-01T12:06:56.521Z,83.90
2018-02-01T12:09:24.168Z,83.80
2018-02-01T12:11:51.813Z,84.10
2018-02-01T12:14:20.146Z,83.90
2018-02-01T12:16:47.759Z,83.90
2018-02-01T12:19:16.065Z,84.30
2018-02-01T12:21:43.633Z,84.30
2018-02-01T12:24:11.209Z,84.50
2018-02-01T12:26:38.727Z,85.00
2018-02-01T12:29:06.275Z,85.30
2018-02-01T12:31:34.630Z,86.20
2018-02-01T12:34:03.047Z,86.20
2018-02-01T12:36:30.645Z,86.40
2018-02-01T12:38:58.442Z,86.60
2018-02-01T12:41:26.020Z,86.60
2018-02-01T12:43:54.347Z,87.30
2018-02-01T12:46:21.887Z,87.20
2018-02-01T12:48:49.515Z,87.50
2018-02-01T12:51:17.870Z,87.80
2018-02-01T12:53:45.442Z,87.90
2018-02-01T12:56:13.790Z,87.90
2018-02-01T12:58:41.486Z,87.90
2018-02-01T13:01:09.908Z,88.00
2018-02-01T13:03:37.532Z,88.00
2018-02-01T13:06:06.030Z,88.30
2018-02-01T13:08:33.609Z,88.40
2018-02-01T13:11:01.178Z,88.20
2018-02-01T13:13:28.744Z,88.40
2018-02-01T13:15:56.314Z,88.80
2018-02-01T13:18:23.895Z,89.90
2018-02-01T13:20:51.443Z,89.40
2018-02-01T13:23:19.002Z,89.00
2018-02-01T13:25:46.558Z,88.90
2018-02-01T13:28:14.074Z,88.80
2018-02-01T13:30:41.601Z,88.10
2018-02-01T13:33:09.904Z,87.20
2018-02-01T13:35:37.440Z,87.20
2018-02-01T13:38:05.730Z,81.90
2018-02-01T13:40:33.244Z,81.80
2018-02-01T13:43:00.753Z,76.60
2018-02-01T13:45:28.267Z,76.00
2018-02-01T13:47:55.826Z,75.80
2018-02-01T13:50:23.385Z,76.30
2018-02-01T13:52:52.430Z,77.10
2018-02-01T13:55:19.939Z,77.00
2018-02-01T13:57:47.502Z,76.40
2018-02-01T14:00:15.053Z,77.00
2018-02-01T14:02:42.594Z,78.00
2018-02-01T14:05:10.142Z,79.00
2018-02-01T14:07:38.457Z,80.10
2018-02-01T14:10:05.996Z,81.00
2018-02-01T14:12:33.552Z,81.90
2018-02-01T14:15:01.084Z,82.30
2018-02-01T14:17:28.853Z,82.80
2018-02-01T14:19:57.454Z,83.70
2018-02-01T14:22:25.007Z,84.40
2018-02-01T14:24:52.582Z,84.70
2018-02-01T14:27:20.169Z,84.80
2018-02-01T14:29:49.238Z,84.70
2018-02-01T14:32:16.805Z,84.60
2018-02-01T14:34:44.373Z,84.60
2018-02-01T14:37:11.920Z,84.50
2018-02-01T14:39:39.450Z,84.70
2018-02-01T14:42:07.019Z,84.80
2018-02-01T14:44:34.576Z,85.00
2018-02-01T14:47:02.115Z,85.40
2018-02-01T14:49:29.669Z,85.60
2018-02-01T14:51:57.275Z,85.60
2018-02-01T14:54:24.767Z,85.50
2018-02-01T14:56:53.035Z,85.40
2018-02-01T14:59:20.527Z,85.80
2018-02-01T15:01:48.029Z,85.40
2018-02-01T15:04:15.535Z,85.50
2018-02-01T15:06:43.810Z,86.50
2018-02-01T15:09:12.083Z,86.80
2018-02-01T15:11:40.346Z,86.40
2018-02-01T15:14:07.842Z,86.40
2018-02-01T15:16:35.334Z,86.00
2018-02-01T15:19:02.848Z,85.90
2018-02-01T15:21:30.342Z,85.90
2018-02-01T15:23:57.988Z,86.00
2018-02-01T15:26:25.480Z,86.00
2018-02-01T15:28:52.983Z,85.80
2018-02-01T15:31:20.491Z,86.50
2018-02-01T15:33:48.000Z,88.00
2018-02-01T15:36:15.492Z,88.80
2018-02-01T15:38:43.004Z,89.30
2018-02-01T15:41:11.274Z,89.40
2018-02-01T15:43:39.534Z,89.90
2018-02-01T15:46:07.042Z,89.90
2018-02-01T15:48:34.546Z,90.00
2018-02-01T15:51:02.377Z,90.10
2018-02-01T15:53:29.874Z,90.20
2018-02-01T15:55:57.378Z,90.20
2018-02-01T15:58:24.870Z,90.30
2018-02-01T16:00:52.417Z,90.40
2018-02-01T16:03:19.896Z,90.50
2018-02-01T16:05:47.387Z,90.50
2018-02-01T16:08:15.647Z,90.60
2018-02-01T16:10:43.182Z,90.60
2018-02-01T16:13:10.683Z,90.60
2018-02-01T16:15:38.942Z,91.00
2018-02-01T16:18:07.214Z,90.90
2018-02-01T16:20:34.708Z,90.90
2018-02-01T16:23:02.211Z,92.00
2018-02-01T16:25:29.706Z,92.60
2018-02-01T16:27:57.974Z,92.50
2018-02-01T16:30:26.238Z,91.90
2018-02-01T16:32:53.758Z,91.90
2018-02-01T16:35:21.247Z,91.60
2018-02-01T16:37:48.746Z,91.50
2018-02-01T16:40:16.243Z,91.20
2018-02-01T16:42:43.739Z,90.90
2018-02-01T16:45:11.988Z,90.60
2018-02-01T16:47:39.475Z,90.60
2018-02-01T16:50:07.738Z,90.10
2018-02-01T16:52:35.226Z,90.10
2018-02-01T16:55:02.718Z,90.70
2018-02-01T16:57:30.231Z,90.70
2018-02-01T16:59:58.484Z,90.80
2018-02-01T17:02:25.970Z,90.80
2018-02-01T17:04:54.222Z,91.20
2018-02-01T17:07:21.720Z,91.20
2018-02-01T17:09:49.203Z,91.20
2018-02-01T17:12:16.691Z,91.40
2018-02-01T17:14:44.178Z,91.00
2018-02-01T17:17:12.443Z,91.10
2018-02-01T17:19:40.730Z,91.40
2018-02-01T17:22:09.008Z,91.80
2018-02-01T17:24:36.507Z,92.10
2018-02-01T17:27:04.018Z,91.90
2018-02-01T17:29:32.298Z,91.80
2018-02-01T17:32:00.592Z,91.70
2018-02-01T17:34:28.082Z,91.70
2018-02-01T17:36:55.579Z,91.70
2018-02-01T17:39:23.833Z,91.00
2018-02-01T17:41:51.345Z,91.00
2018-02-01T17:44:18.831Z,90.50
2018-02-01T17:46:46.319Z,90.20
2018-02-01T17:49:13.804Z,89.10
2018-02-01T17:51:41.302Z,89.40
2018-02-01T17:54:08.803Z,89.10
2018-02-01T17:56:37.056Z,88.80
2018-02-01T17:59:04.543Z,88.60
2018-02-01T18:01:32.818Z,88.80
2018-02-01T18:04:01.075Z,89.00
2018-02-01T18:06:28.561Z,88.90
2018-02-01T18:08:56.810Z,89.90
2018-02-01T18:11:24.327Z,89.90
2018-02-01T18:13:51.816Z,90.00
2018-02-01T18:16:19.350Z,89.80
2018-02-01T18:18:46.839Z,90.00
2018-02-01T18:21:15.108Z,90.20
2018-02-01T18:23:42.610Z,90.60
2018-02-01T18:26:10.104Z,90.30
2018-02-01T18:28:37.612Z,90.40
2018-02-01T18:31:05.915Z,90.40
2018-02-01T18:33:33.430Z,90.40
2018-02-01T18:36:00.914Z,90.40
2018-02-01T18:38:29.191Z,90.20
2018-02-01T18:40:56.696Z,90.30
2018-02-01T18:43:24.199Z,90.70
2018-02-01T18:45:52.460Z,89.70
2018-02-01T18:48:19.950Z,89.70
2018-02-01T18:50:47.462Z,90.00
2018-02-01T18:53:14.958Z,89.90
2018-02-01T18:55:43.223Z,89.70
2018-02-01T18:58:11.474Z,90.00
2018-02-01T19:00:38.975Z,90.00
2018-02-01T19:03:06.515Z,89.70
2018-02-01T19:05:33.986Z,89.60
2018-02-01T19:08:02.238Z,88.60
2018-02-01T19:10:29.735Z,88.60
2018-02-01T19:12:57.230Z,88.70
2018-02-01T19:15:24.718Z,87.40
2018-02-01T19:17:52.998Z,87.80
2018-02-01T19:20:21.259Z,88.30
2018-02-01T19:22:48.746Z,88.30
2018-02-01T19:25:16.259Z,87.50
2018-02-01T19:27:43.759Z,87.50
2018-02-01T19:30:12.014Z,87.40
2018-02-01T19:32:39.503Z,87.40
2018-02-01T19:35:06.995Z,87.40
2018-02-01T19:37:34.494Z,86.90
2018-02-01T19:40:02.750Z,86.50
2018-02-01T19:42:30.234Z,86.40
2018-02-01T19:44:58.555Z,86.00
2018-02-01T19:47:26.015Z,86.00
2018-02-01T19:49:53.514Z,85.70
2018-02-01T19:52:21.011Z,85.20
2018-02-01T19:54:48.543Z,84.80
2018-02-01T19:57:16.803Z,85.10
2018-02-01T19:59:44.293Z,84.40
2018-02-01T20:02:11.779Z,84.70
2018-02-01T20:04:39.262Z,83.70
2018-02-01T20:07:06.765Z,84.30
2018-02-01T20:09:34.266Z,84.40
2018-02-01T20:12:01.780Z,83.80
2018-02-01T20:14:30.038Z,83.20
2018-02-01T20:16:58.299Z,82.50
2018-02-01T20:19:25.790Z,82.40
2018-02-01T20:21:53.301Z,82.50
2018-02-01T20:24:20.811Z,82.60
2018-02-01T20:26:48.319Z,82.20
2018-02-01T20:29:15.824Z,82.20
2018-02-01T20:31:44.123Z,82.00
2018-02-01T20:34:11.627Z,81.90
2018-02-01T20:36:39.119Z,81.60
2018-02-01T20:39:06.695Z,81.60
2018-02-01T20:41:34.199Z,81.10
2018-02-01T20:44:01.700Z,80.60
2018-02-01T20:46:29.194Z,80.90
2018-02-01T20:48:56.687Z,81.00
2018-02-01T20:51:24.186Z,81.30
2018-02-01T20:53:51.671Z,81.10
2018-02-01T20:56:19.159Z,80.70
2018-02-01T20:58:46.672Z,80.90
2018-02-01T21:01:14.166Z,82.00
2018-02-01T21:03:41.662Z,81.00
2018-02-01T21:06:09.154Z,80.10
2018-02-01T21:08:36.658Z,80.30
2018-02-01T21:11:04.930Z,79.50
2018-02-01T21:13:33.262Z,79.30
2018-02-01T21:16:00.752Z,79.20
2018-02-01T21:18:28.234Z,78.50
2018-02-01T21:20:56.493Z,79.20
2018-02-01T21:23:23.985Z,79.10
2018-02-01T21:25:51.495Z,78.80
2018-02-01T21:28:18.999Z,78.80
2018-02-01T21:30:46.494Z,79.00
2018-02-01T21:33:13.990Z,78.80
2018-02-01T21:35:41.474Z,78.70
2018-02-01T21:38:08.980Z,78.40
2018-02-01T21:40:36.491Z,78.90
2018-02-01T21:43:03.974Z,78.60
2018-02-01T21:45:31.494Z,78.60
2018-02-01T21:47:59.766Z,78.30
2018-02-01T21:50:28.018Z,78.70
2018-02-01T21:52:55.507Z,78.70
2018-02-01T21:55:23.763Z,78.90
2018-02-01T21:57:51.265Z,78.90
2018-02-01T22:00:18.779Z,78.70
2018-02-01T22:02:46.263Z,78.80
2018-02-01T22:05:13.755Z,78.60
2018-02-01T22:07:41.250Z,79.10
2018-02-01T22:10:08.768Z,79.10
2018-02-01T22:12:36.254Z,79.20
2018-02-01T22:15:03.739Z,79.20
2018-02-01T22:17:32.006Z,78.60
2018-02-01T22:19:59.490Z,78.60
2018-02-01T22:22:26.999Z,79.00
2018-02-01T22:24:54.488Z,78.70
2018-02-01T22:27:22.738Z,78.40
2018-02-01T22:29:50.226Z,78.40
2018-02-01T22:32:18.476Z,79.30
2018-02-01T22:34:45.963Z,79.30
2018-02-01T22:37:14.211Z,79.70
2018-02-01T22:39:41.698Z,79.70
2018-02-01T22:42:09.970Z,79.80
2018-02-01T22:44:38.231Z,80.20
2018-02-01T22:47:05.730Z,80.00
2018-02-01T22:49:33.233Z,80.20
2018-02-01T22:52:00.714Z,80.30
2018-02-01T22:54:28.983Z,80.30
2018-02-01T22:56:57.250Z,80.30
2018-02-01T22:59:24.740Z,80.30
2018-02-01T23:01:52.230Z,80.20
2018-02-01T23:04:19.724Z,80.40
2018-02-01T23:06:47.239Z,80.40
2018-02-01T23:09:14.730Z,80.50
2018-02-01T23:11:42.224Z,80.40
2018-02-01T23:14:10.475Z,80.60
2018-02-01T23:16:37.962Z,80.50
2018-02-01T23:19:06.226Z,80.50
2018-02-01T23:21:34.489Z,80.40
2018-02-01T23:24:01.975Z,80.40
2018-02-01T23:26:29.467Z,80.50
2018-02-01T23:28:56.957Z,80.50
2018-02-01T23:31:24.451Z,79.60
2018-02-01T23:33:51.938Z,79.40
2018-02-01T23:36:19.429Z,79.70
2018-02-01T23:38:46.914Z,78.90
2018-02-01T23:41:15.182Z,78.80
2018-02-01T23:43:43.440Z,78.90
2018-02-01T23:46:10.949Z,78.80
2018-02-01T23:48:38.431Z,79.00
2018-02-01T23:51:05.923Z,78.80
2018-02-01T23:53:33.422Z,79.10
2018-02-01T23:56:00.927Z,80.00
2018-02-01T23:58:28.414Z,78.70
